This is the latest recevied weather packets stored in our database for station/object VU3IZK-13. If no packets are shown the sender has not sent any weather packets the latest 10 day(s).
| Time | Temp. | Humidity | Pressure | Rain* | Wind** | Luminosity | Snow |
|---|---|---|---|---|---|---|---|
| 1776960906 | 27.22° C | 64% | 0 hPa | 0 mm | - | - | - |
| 1776960006 | 27.78° C | 61% | 0 hPa | 0 mm | - | - | - |
| 1776959130 | 27.78° C | 61% | 0 hPa | 0 mm | - | - | - |
| 1776958230 | 28.33° C | 61% | 0 hPa | 0 mm | - | - | - |
| 1776957352 | 28.89° C | 57% | 0 hPa | 0 mm | - | - | - |
| 1776956423 | 28.33° C | 56% | 0 hPa | 0 mm | - | - | - |
| 1776955524 | 28.33° C | 57% | 0 hPa | 0 mm | - | - | - |
| 1776954604 | 28.33° C | 61% | 0 hPa | 0 mm | - | - | - |
| 1776953720 | 28.33° C | 61% | 0 hPa | 0 mm | - | - | - |
| 1776952837 | 27.78° C | 61% | 0 hPa | 0 mm | - | - | - |
| 1776950127 | 28.33° C | 56% | 0 hPa | 0 mm | - | - | - |
| 1776949244 | 29.44° C | 57% | 0 hPa | 0 mm | - | - | - |
| 1776948330 | 30° C | 56% | 0 hPa | 0 mm | - | - | - |
| 1776947405 | 29.44° C | 53% | 0 hPa | 0 mm | - | - | - |
| 1776945633 | 26.67° C | 56% | 0 hPa | 0 mm | - | - | - |
| 1776944732 | 26.11° C | 58% | 0 hPa | 0 mm | - | - | - |
| 1776943810 | 27.22° C | 59% | 0 hPa | 3.05 mm | - | - | - |
| 1776942911 | 33.89° C | 36% | 0 hPa | 1.27 mm | - | - | - |
| 1776942035 | 36.67° C | 30% | 0 hPa | 0 mm | - | - | - |
| 1776941135 | 37.78° C | 29% | 0 hPa | 0 mm | - | - | - |
| 1776940213 | 38.33° C | 27% | 0 hPa | 0 mm | - | - | - |
| 1776939311 | 38.89° C | 27% | 0 hPa | 0 mm | - | - | - |
| 1776938432 | 38.89° C | 28% | 0 hPa | 0 mm | - | - | - |
| 1776937512 | 37.78° C | 26% | 0 hPa | 0 mm | - | - | - |
| 1776936612 | 37.78° C | 30% | 0 hPa | 0 mm | - | - | - |
* Rain latest hour (hover to see other rain measurements)
** Current wind speed in m/s (hover to see current wind gust speed)